LOG99RB EGPH-EGNS
Flight info
| Callsign | LOG99RB |
|---|---|
| Flight time | 0h 32m |
| Altitude | 18000 |
| Route | TLA N864 DCS DCT IOM |
| Aircraft | SF34/M-SDFGR/S |
Departure
| Time | 2026-05-07 12:27 |
|---|---|
| Airport | Edinburgh Airport (EGPH) |
Arrival
| Time | 2026-05-07 12:59 |
|---|---|
| Airport | Isle of Man Airport (EGNS) |
| Time | Latitude | Longitude | Altitude | Speed | Heading |
|---|---|---|---|---|---|
| 2026-05-07 11:49 | 55.94702 | -3.36861 | 112 ft | 0 kts | 269° |
| 2026-05-07 11:50 | 55.94703 | -3.36861 | 112 ft | 0 kts | 269° |
| 2026-05-07 11:50 | 55.94702 | -3.36861 | 112 ft | 0 kts | 269° |
| 2026-05-07 12:08 | 55.94703 | -3.36842 | 112 ft | 4 kts | 271° |
| 2026-05-07 12:08 | 55.94701 | -3.36799 | 112 ft | 4 kts | 280° |
| 2026-05-07 12:08 | 55.94693 | -3.36755 | 109 ft | 4 kts | 308° |
| 2026-05-07 12:08 | 55.94678 | -3.36735 | 111 ft | 1 kts | 359° |
| 2026-05-07 12:20 | 55.94703 | -3.36736 | 112 ft | 8 kts | 359° |
| 2026-05-07 12:20 | 55.94776 | -3.36769 | 111 ft | 14 kts | 342° |
| 2026-05-07 12:20 | 55.94888 | -3.36792 | 112 ft | 15 kts | 327° |
| 2026-05-07 12:20 | 55.94972 | -3.36761 | 112 ft | 18 kts | 58° |
| 2026-05-07 12:21 | 55.95048 | -3.36533 | 112 ft | 25 kts | 60° |
| 2026-05-07 12:21 | 55.95148 | -3.36239 | 111 ft | 31 kts | 59° |
| 2026-05-07 12:21 | 55.95266 | -3.35887 | 111 ft | 35 kts | 59° |
| 2026-05-07 12:21 | 55.95369 | -3.35579 | 111 ft | 0 kts | 52° |
| 2026-05-07 12:22 | 55.95372 | -3.35573 | 112 ft | 3 kts | 53° |
| 2026-05-07 12:22 | 55.95393 | -3.35515 | 112 ft | 7 kts | 58° |
| 2026-05-07 12:22 | 55.95424 | -3.35424 | 111 ft | 10 kts | 54° |
| 2026-05-07 12:23 | 55.95494 | -3.35434 | 111 ft | 9 kts | 328° |
| 2026-05-07 12:23 | 55.95500 | -3.35440 | 111 ft | 0 kts | 329° |
| 2026-05-07 12:24 | 55.95529 | -3.35472 | 110 ft | 14 kts | 329° |
| 2026-05-07 12:25 | 55.95570 | -3.35571 | 109 ft | 0 kts | 237° |
| 2026-05-07 12:26 | 55.95544 | -3.35644 | 109 ft | 36 kts | 238° |
| 2026-05-07 12:26 | 55.95256 | -3.36472 | 134 ft | 114 kts | 228° |
| 2026-05-07 12:27 | 55.94752 | -3.37872 | 514 ft | 153 kts | 237° |
| 2026-05-07 12:27 | 55.94157 | -3.39675 | 1028 ft | 185 kts | 236° |
| 2026-05-07 12:27 | 55.93502 | -3.41723 | 1700 ft | 194 kts | 237° |
| 2026-05-07 12:27 | 55.92853 | -3.43657 | 2929 ft | 168 kts | 232° |
| 2026-05-07 12:28 | 55.92245 | -3.45249 | 4397 ft | 142 kts | 233° |
| 2026-05-07 12:28 | 55.91770 | -3.46616 | 5849 ft | 117 kts | 234° |
| 2026-05-07 12:28 | 55.91375 | -3.47762 | 7009 ft | 105 kts | 235° |
| 2026-05-07 12:28 | 55.90977 | -3.48909 | 7838 ft | 116 kts | 235° |
| 2026-05-07 12:29 | 55.90500 | -3.50286 | 8453 ft | 145 kts | 236° |
| 2026-05-07 12:29 | 55.89946 | -3.51982 | 9069 ft | 173 kts | 238° |
| 2026-05-07 12:29 | 55.89292 | -3.53925 | 9581 ft | 197 kts | 230° |
| 2026-05-07 12:29 | 55.88087 | -3.55323 | 9908 ft | 224 kts | 199° |
| 2026-05-07 12:30 | 55.86451 | -3.55414 | 9962 ft | 251 kts | 171° |
| 2026-05-07 12:30 | 55.84773 | -3.54292 | 9995 ft | 261 kts | 163° |
| 2026-05-07 12:30 | 55.83132 | -3.53347 | 10846 ft | 234 kts | 168° |
| 2026-05-07 12:30 | 55.81658 | -3.52565 | 12184 ft | 207 kts | 167° |
| 2026-05-07 12:31 | 55.80382 | -3.51808 | 13736 ft | 180 kts | 168° |
| 2026-05-07 12:31 | 55.79276 | -3.51212 | 15122 ft | 153 kts | 171° |
| 2026-05-07 12:31 | 55.78215 | -3.50653 | 15886 ft | 172 kts | 170° |
| 2026-05-07 12:31 | 55.76994 | -3.49987 | 16338 ft | 200 kts | 168° |
| 2026-05-07 12:32 | 55.75577 | -3.49206 | 16806 ft | 222 kts | 168° |
| 2026-05-07 12:32 | 55.74102 | -3.48391 | 17651 ft | 224 kts | 168° |
| 2026-05-07 12:32 | 55.72557 | -3.47563 | 18002 ft | 245 kts | 167° |
| 2026-05-07 12:32 | 55.70840 | -3.46624 | 18008 ft | 269 kts | 166° |
| 2026-05-07 12:33 | 55.67105 | -3.44599 | 18015 ft | 286 kts | 169° |
| 2026-05-07 12:33 | 55.65144 | -3.44169 | 18017 ft | 284 kts | 183° |
| 2026-05-07 12:33 | 55.63162 | -3.44159 | 18019 ft | 286 kts | 181° |
| 2026-05-07 12:34 | 55.61160 | -3.43875 | 18019 ft | 289 kts | 177° |
| 2026-05-07 12:34 | 55.59190 | -3.43431 | 18020 ft | 290 kts | 176° |
| 2026-05-07 12:34 | 55.57186 | -3.43091 | 18024 ft | 290 kts | 179° |
| 2026-05-07 12:34 | 55.55174 | -3.42808 | 18018 ft | 291 kts | 178° |
| 2026-05-07 12:35 | 55.53163 | -3.42427 | 18020 ft | 290 kts | 178° |
| 2026-05-07 12:35 | 55.51158 | -3.42102 | 18030 ft | 289 kts | 179° |
| 2026-05-07 12:35 | 55.49150 | -3.41785 | 18026 ft | 290 kts | 178° |
| 2026-05-07 12:35 | 55.47146 | -3.41427 | 18011 ft | 289 kts | 178° |
| 2026-05-07 12:36 | 55.45144 | -3.41104 | 18019 ft | 289 kts | 178° |
| 2026-05-07 12:36 | 55.43142 | -3.40776 | 18019 ft | 289 kts | 178° |
| 2026-05-07 12:36 | 55.41168 | -3.40437 | 18023 ft | 289 kts | 177° |
| 2026-05-07 12:36 | 55.39157 | -3.40111 | 18026 ft | 291 kts | 178° |
| 2026-05-07 12:37 | 55.37143 | -3.39778 | 18029 ft | 291 kts | 177° |
| 2026-05-07 12:37 | 55.35121 | -3.39433 | 18030 ft | 291 kts | 177° |
| 2026-05-07 12:37 | 55.33114 | -3.39110 | 18030 ft | 290 kts | 177° |
| 2026-05-07 12:37 | 55.31105 | -3.38776 | 18038 ft | 290 kts | 178° |
| 2026-05-07 12:38 | 55.29092 | -3.38440 | 18039 ft | 290 kts | 178° |
| 2026-05-07 12:38 | 55.27089 | -3.38115 | 18036 ft | 290 kts | 177° |
| 2026-05-07 12:38 | 55.25074 | -3.37780 | 18036 ft | 290 kts | 177° |
| 2026-05-07 12:38 | 55.23095 | -3.37450 | 18037 ft | 289 kts | 178° |
| 2026-05-07 12:39 | 55.21090 | -3.37127 | 18029 ft | 291 kts | 177° |
| 2026-05-07 12:39 | 55.19070 | -3.36789 | 18029 ft | 292 kts | 177° |
| 2026-05-07 12:39 | 55.17051 | -3.36460 | 18029 ft | 291 kts | 177° |
| 2026-05-07 12:39 | 55.15036 | -3.36132 | 18029 ft | 291 kts | 176° |
| 2026-05-07 12:40 | 55.13020 | -3.35797 | 18030 ft | 291 kts | 177° |
| 2026-05-07 12:40 | 55.11008 | -3.35470 | 18035 ft | 290 kts | 177° |
| 2026-05-07 12:40 | 55.08997 | -3.35143 | 18036 ft | 290 kts | 176° |
| 2026-05-07 12:40 | 55.07014 | -3.34815 | 18035 ft | 291 kts | 177° |
| 2026-05-07 12:41 | 55.05003 | -3.34489 | 18035 ft | 290 kts | 177° |
| 2026-05-07 12:41 | 55.02990 | -3.34162 | 18035 ft | 291 kts | 177° |
| 2026-05-07 12:41 | 55.00972 | -3.33832 | 18035 ft | 291 kts | 177° |
| 2026-05-07 12:41 | 54.98954 | -3.33503 | 18036 ft | 291 kts | 177° |
| 2026-05-07 12:42 | 54.96940 | -3.33182 | 18034 ft | 289 kts | 178° |
| 2026-05-07 12:42 | 54.94986 | -3.33685 | 18027 ft | 285 kts | 202° |
| 2026-05-07 12:42 | 54.93380 | -3.35661 | 18028 ft | 286 kts | 227° |
| 2026-05-07 12:42 | 54.92338 | -3.38608 | 18033 ft | 285 kts | 237° |
| 2026-05-07 12:43 | 54.91001 | -3.41036 | 18026 ft | 285 kts | 213° |
| 2026-05-07 12:43 | 54.89261 | -3.42680 | 18031 ft | 284 kts | 208° |
| 2026-05-07 12:43 | 54.87595 | -3.44533 | 18035 ft | 285 kts | 216° |
| 2026-05-07 12:43 | 54.86036 | -3.46664 | 18035 ft | 285 kts | 218° |
| 2026-05-07 12:44 | 54.84460 | -3.48761 | 18039 ft | 286 kts | 215° |
| 2026-05-07 12:44 | 54.82821 | -3.50731 | 18036 ft | 287 kts | 214° |
| 2026-05-07 12:44 | 54.81214 | -3.52778 | 18037 ft | 287 kts | 217° |
| 2026-05-07 12:44 | 54.79615 | -3.54823 | 18045 ft | 286 kts | 215° |
| 2026-05-07 12:45 | 54.77992 | -3.56821 | 18050 ft | 286 kts | 215° |
| 2026-05-07 12:45 | 54.76402 | -3.58839 | 18048 ft | 287 kts | 216° |
| 2026-05-07 12:45 | 54.74789 | -3.60867 | 18048 ft | 287 kts | 215° |
| 2026-05-07 12:45 | 54.73169 | -3.62884 | 18053 ft | 287 kts | 216° |
| 2026-05-07 12:46 | 54.71556 | -3.64916 | 18053 ft | 286 kts | 216° |
| 2026-05-07 12:46 | 54.69946 | -3.66925 | 18056 ft | 286 kts | 215° |
| 2026-05-07 12:46 | 54.68331 | -3.68942 | 18038 ft | 287 kts | 216° |
| 2026-05-07 12:46 | 54.66710 | -3.70970 | 18036 ft | 287 kts | 215° |
| 2026-05-07 12:47 | 54.65091 | -3.72985 | 18035 ft | 287 kts | 215° |
| 2026-05-07 12:47 | 54.63495 | -3.74976 | 18040 ft | 286 kts | 215° |
| 2026-05-07 12:47 | 54.61878 | -3.76990 | 18053 ft | 287 kts | 215° |
| 2026-05-07 12:47 | 54.60257 | -3.79002 | 18058 ft | 288 kts | 215° |
| 2026-05-07 12:48 | 54.58629 | -3.81028 | 18061 ft | 288 kts | 215° |
| 2026-05-07 12:48 | 54.57001 | -3.83047 | 18059 ft | 288 kts | 215° |
| 2026-05-07 12:48 | 54.55377 | -3.85061 | 18061 ft | 288 kts | 215° |
| 2026-05-07 12:48 | 54.53747 | -3.87078 | 18053 ft | 288 kts | 215° |
| 2026-05-07 12:49 | 54.52120 | -3.89092 | 18056 ft | 289 kts | 215° |
| 2026-05-07 12:49 | 54.50489 | -3.91107 | 18051 ft | 289 kts | 215° |
| 2026-05-07 12:49 | 54.48880 | -3.93095 | 18056 ft | 288 kts | 215° |
| 2026-05-07 12:49 | 54.47249 | -3.95107 | 18053 ft | 288 kts | 215° |
| 2026-05-07 12:50 | 54.45621 | -3.97115 | 18048 ft | 288 kts | 215° |
| 2026-05-07 12:50 | 54.43988 | -3.99124 | 18050 ft | 288 kts | 215° |
| 2026-05-07 12:50 | 54.42361 | -4.01125 | 18039 ft | 288 kts | 215° |
| 2026-05-07 12:50 | 54.40724 | -4.03136 | 18038 ft | 289 kts | 215° |
| 2026-05-07 12:51 | 54.39093 | -4.05138 | 18040 ft | 289 kts | 215° |
| 2026-05-07 12:51 | 54.37453 | -4.07150 | 17916 ft | 292 kts | 215° |
| 2026-05-07 12:51 | 54.35819 | -4.09151 | 17800 ft | 293 kts | 215° |
| 2026-05-07 12:51 | 54.34147 | -4.11196 | 17398 ft | 299 kts | 215° |
| 2026-05-07 12:52 | 54.32430 | -4.13295 | 16749 ft | 306 kts | 215° |
| 2026-05-07 12:52 | 54.30683 | -4.15431 | 15861 ft | 311 kts | 215° |
| 2026-05-07 12:52 | 54.28914 | -4.17586 | 14991 ft | 312 kts | 215° |
| 2026-05-07 12:52 | 54.27205 | -4.19589 | 14139 ft | 286 kts | 213° |
| 2026-05-07 12:53 | 54.25610 | -4.21444 | 13235 ft | 270 kts | 214° |
| 2026-05-07 12:53 | 54.24107 | -4.23262 | 12309 ft | 260 kts | 214° |
| 2026-05-07 12:53 | 54.22659 | -4.25043 | 11411 ft | 253 kts | 214° |
| 2026-05-07 12:53 | 54.21247 | -4.26762 | 10536 ft | 247 kts | 214° |
| 2026-05-07 12:54 | 54.19877 | -4.28419 | 9669 ft | 242 kts | 214° |
| 2026-05-07 12:54 | 54.18515 | -4.30066 | 8728 ft | 238 kts | 214° |
| 2026-05-07 12:54 | 54.17181 | -4.31681 | 7819 ft | 234 kts | 213° |
| 2026-05-07 12:54 | 54.15863 | -4.33274 | 6932 ft | 231 kts | 213° |
| 2026-05-07 12:55 | 54.14561 | -4.34847 | 6044 ft | 228 kts | 213° |
| 2026-05-07 12:55 | 54.13278 | -4.36396 | 5134 ft | 225 kts | 213° |
| 2026-05-07 12:55 | 54.12003 | -4.37932 | 4227 ft | 224 kts | 213° |
| 2026-05-07 12:55 | 54.10744 | -4.39473 | 3369 ft | 220 kts | 217° |
| 2026-05-07 12:56 | 54.09859 | -4.41482 | 2991 ft | 208 kts | 244° |
| 2026-05-07 12:56 | 54.09733 | -4.43713 | 2219 ft | 187 kts | 274° |
| 2026-05-07 12:56 | 54.09973 | -4.45755 | 1594 ft | 166 kts | 275° |
| 2026-05-07 12:56 | 54.10175 | -4.47635 | 1507 ft | 162 kts | 270° |
| 2026-05-07 12:57 | 54.10169 | -4.49343 | 1447 ft | 123 kts | 253° |
| 2026-05-07 12:57 | 54.09987 | -4.50730 | 1292 ft | 120 kts | 250° |
| 2026-05-07 12:57 | 54.09741 | -4.52091 | 1080 ft | 118 kts | 245° |
| 2026-05-07 12:57 | 54.09510 | -4.53428 | 899 ft | 120 kts | 252° |
| 2026-05-07 12:58 | 54.09349 | -4.54829 | 738 ft | 120 kts | 252° |
| 2026-05-07 12:58 | 54.09175 | -4.56191 | 639 ft | 118 kts | 249° |
| 2026-05-07 12:58 | 54.08955 | -4.57529 | 580 ft | 118 kts | 249° |
| 2026-05-07 12:58 | 54.08782 | -4.58928 | 365 ft | 123 kts | 250° |
| 2026-05-07 12:59 | 54.08590 | -4.60322 | 157 ft | 120 kts | 252° |
| 2026-05-07 12:59 | 54.08429 | -4.61595 | 46 ft | 95 kts | 250° |
| 2026-05-07 12:59 | 54.08321 | -4.62443 | 39 ft | 41 kts | 257° |
| 2026-05-07 12:59 | 54.08288 | -4.62784 | 39 ft | 18 kts | 298° |
| 2026-05-07 13:00 | 54.08345 | -4.62988 | 38 ft | 23 kts | 293° |
| 2026-05-07 13:00 | 54.08424 | -4.63258 | 39 ft | 20 kts | 296° |
| 2026-05-07 13:00 | 54.08482 | -4.63354 | 41 ft | 11 kts | 16° |
| 2026-05-07 13:00 | 54.08520 | -4.63325 | 41 ft | 8 kts | 13° |
| 2026-05-07 13:01 | 54.08552 | -4.63290 | 41 ft | 5 kts | 44° |
| 2026-05-07 13:01 | 54.08564 | -4.63270 | 41 ft | 0 kts | 43° |
| 2026-05-07 13:01 | 54.08565 | -4.63270 | 41 ft | 0 kts | 43° |